Time;durP1;ratioP1;P1;durP2;ratioP2;P2;SDS_P1;SDS_P2;PMS_P1;PMS_P2;Temp;Humidity;BMP_temperature;BMP_pressure;BME280_temperature;BME280_humidity;BME280_pressure;Samples;Min_cycle;Max_cycle;Signal;HPM_P1;HPM_P2
2023/03/24 00:01:55;;;;;;;18.05;9.23;;;;;;;6.92;68.03;94011.72;5063879;28;20017;-75
2023/03/24 00:04:20;;;;;;;18.10;9.10;;;;;;;6.89;68.29;94006.19;5064071;28;20028;-75
2023/03/24 00:06:48;;;;;;;16.30;7.65;;;;;;;6.88;68.40;94005.41;5064179;28;20029;-75
2023/03/24 00:09:14;;;;;;;22.50;8.95;;;;;;;6.91;68.11;94012.78;5064252;28;20215;-75
2023/03/24 00:11:40;;;;;;;17.58;8.48;;;;;;;6.91;68.24;94007.47;5064163;28;20020;-75
2023/03/24 00:14:06;;;;;;;19.80;8.65;;;;;;;6.90;68.32;94013.88;5063855;28;20215;-75
2023/03/24 00:16:33;;;;;;;15.68;9.00;;;;;;;6.91;68.19;94004.06;5063600;28;20345;-74
2023/03/24 00:19:00;;;;;;;18.83;8.88;;;;;;;6.86;68.41;94010.22;5063782;28;20024;-74
2023/03/24 00:21:25;;;;;;;20.80;9.52;;;;;;;6.85;69.22;94013.91;5063677;28;20035;-75
2023/03/24 00:23:54;;;;;;;24.65;10.38;;;;;;;6.84;69.98;94012.34;5063721;28;20220;-75
2023/03/24 00:26:20;;;;;;;19.08;10.18;;;;;;;6.73;71.12;94006.38;5063530;28;20017;-74
2023/03/24 00:28:47;;;;;;;19.15;9.88;;;;;;;6.60;71.50;94018.47;5063506;28;20197;-75
2023/03/24 00:31:15;;;;;;;20.30;9.35;;;;;;;6.55;71.97;94026.47;5063734;28;20211;-75
2023/03/24 00:33:42;;;;;;;19.08;10.23;;;;;;;6.55;72.01;94013.22;5063664;28;20024;-75
2023/03/24 00:36:12;;;;;;;20.00;10.63;;;;;;;6.57;71.77;94015.59;5062280;28;20020;-75
2023/03/24 00:38:39;;;;;;;21.58;9.55;;;;;;;6.54;71.90;94010.88;5063497;28;20041;-75
2023/03/24 00:41:07;;;;;;;17.95;9.63;;;;;;;6.48;71.96;94012.00;5063267;28;20219;-75
2023/03/24 00:43:33;;;;;;;24.30;10.63;;;;;;;6.44;72.23;94009.13;5063208;28;20021;-74
2023/03/24 00:46:00;;;;;;;18.73;10.25;;;;;;;6.42;72.63;94003.34;5063351;28;20036;-74
2023/03/24 00:48:27;;;;;;;25.75;10.32;;;;;;;6.40;72.66;93995.66;5062920;28;20059;-75
2023/03/24 00:50:53;;;;;;;19.10;10.05;;;;;;;6.42;72.42;93998.03;5063231;28;20254;-75
2023/03/24 00:53:19;;;;;;;19.02;10.88;;;;;;;6.38;72.05;93997.03;5063156;28;20047;-74
2023/03/24 00:55:48;;;;;;;21.25;10.07;;;;;;;6.38;71.74;93995.16;5063093;28;20323;-74
2023/03/24 00:58:17;;;;;;;21.95;10.48;;;;;;;6.39;71.93;93991.47;5063009;28;20032;-75
2023/03/24 01:00:48;;;;;;;26.55;10.23;;;;;;;6.43;71.82;93999.59;5063134;28;20029;-75
2023/03/24 01:03:14;;;;;;;17.13;9.77;;;;;;;6.45;71.83;93994.81;5062883;28;20033;-75
2023/03/24 01:05:41;;;;;;;20.35;9.48;;;;;;;6.45;72.14;93992.16;5063123;28;20271;-75
2023/03/24 01:08:08;;;;;;;19.48;9.07;;;;;;;6.42;72.45;93987.44;5062893;28;20029;-74
2023/03/24 01:10:48;;;;;;;21.45;10.23;;;;;;;6.37;73.09;93998.09;5062783;28;20232;-74
2023/03/24 01:13:15;;;;;;;16.90;9.90;;;;;;;6.31;73.39;93985.97;5062862;28;20021;-74
2023/03/24 01:15:41;;;;;;;18.02;9.95;;;;;;;6.27;73.83;93991.06;5063015;28;20031;-74
2023/03/24 01:18:08;;;;;;;21.92;11.70;;;;;;;6.28;73.88;93994.50;5062734;28;20024;-75
2023/03/24 01:20:35;;;;;;;21.38;10.88;;;;;;;6.27;74.11;93990.25;5062775;28;20048;-74
2023/03/24 01:23:03;;;;;;;21.13;11.50;;;;;;;6.31;73.98;93994.72;5062677;28;20354;-74
2023/03/24 01:25:29;;;;;;;22.33;11.32;;;;;;;6.34;74.19;93996.03;5062705;28;20028;-74
2023/03/24 01:27:55;;;;;;;19.05;10.52;;;;;;;6.35;74.15;93989.63;5062662;28;20338;-74
2023/03/24 01:30:24;;;;;;;27.60;12.30;;;;;;;6.32;74.63;93983.06;5062793;28;20047;-74
2023/03/24 01:32:51;;;;;;;26.65;13.25;;;;;;;6.33;74.97;93983.84;5062791;28;20032;-74
2023/03/24 01:35:16;;;;;;;19.70;11.63;;;;;;;6.35;75.17;93987.00;5062605;28;20048;-75
2023/03/24 01:37:42;;;;;;;18.63;11.20;;;;;;;6.32;75.22;93977.75;5062601;28;20083;-75
2023/03/24 01:40:10;;;;;;;22.30;11.85;;;;;;;6.28;74.93;93991.84;5062663;28;20070;-75
2023/03/24 01:42:37;;;;;;;23.10;11.50;;;;;;;6.30;74.30;93974.59;5062461;28;20052;-75
2023/03/24 01:45:33;;;;;;;20.98;11.73;;;;;;;6.28;74.08;93971.47;5062696;28;20036;-75
2023/03/24 01:47:59;;;;;;;24.00;11.60;;;;;;;6.23;73.66;93980.25;5062260;28;20375;-75
2023/03/24 01:50:25;;;;;;;22.25;11.90;;;;;;;6.21;73.87;93982.41;5062735;28;20021;-75
2023/03/24 01:52:50;;;;;;;24.55;13.05;;;;;;;6.20;74.45;93983.44;5062656;28;20017;-75
2023/03/24 01:55:18;;;;;;;27.33;12.30;;;;;;;6.25;74.92;93981.81;5062401;28;20307;-75
2023/03/24 01:57:53;;;;;;;26.38;12.77;;;;;;;6.23;74.74;93988.19;5062436;28;20044;-75
2023/03/24 02:00:20;;;;;;;24.80;13.02;;;;;;;6.22;74.84;93989.25;5062324;28;20056;-75
2023/03/24 02:03:00;;;;;;;19.95;11.40;;;;;;;6.25;75.24;93987.91;5062355;28;20055;-75
2023/03/24 02:05:30;;;;;;;24.63;12.98;;;;;;;6.21;75.08;93987.69;5062782;28;20065;-75
2023/03/24 02:08:07;;;;;;;21.90;12.10;;;;;;;6.19;75.28;93991.69;5066253;28;20103;-75
2023/03/24 02:10:35;;;;;;;22.30;12.18;;;;;;;6.17;75.05;93999.91;5066286;28;20031;-75
2023/03/24 02:13:00;;;;;;;29.13;12.80;;;;;;;6.15;75.05;93998.63;5066209;28;20088;-75
2023/03/24 02:15:30;;;;;;;20.52;11.82;;;;;;;6.13;74.68;93998.91;5066339;28;20036;-75
2023/03/24 02:18:07;;;;;;;22.23;12.23;;;;;;;6.12;74.27;93994.66;5066290;28;20054;-75
2023/03/24 02:20:48;;;;;;;22.63;11.40;;;;;;;6.05;74.02;94010.09;5064952;28;20326;-75
2023/03/24 02:23:45;;;;;;;24.48;11.35;;;;;;;6.00;74.13;93997.72;5064695;28;20036;-75
2023/03/24 02:26:38;;;;;;;27.80;12.35;;;;;;;5.97;74.53;93998.25;5066217;28;20204;-75
2023/03/24 02:29:32;;;;;;;22.05;11.60;;;;;;;5.97;74.93;93994.84;5064865;28;20047;-75
2023/03/24 02:32:21;;;;;;;23.90;13.07;;;;;;;5.94;74.85;93992.69;5065852;28;20028;-75
2023/03/24 02:35:09;;;;;;;20.20;11.02;;;;;;;5.93;75.27;93989.28;5065752;28;20024;-75
2023/03/24 02:37:47;;;;;;;20.25;11.18;;;;;;;5.86;75.25;93990.66;5065701;28;20029;-75
2023/03/24 02:40:27;;;;;;;21.77;11.70;;;;;;;5.86;75.06;93991.44;5066034;28;20024;-75
2023/03/24 02:42:59;;;;;;;23.83;12.63;;;;;;;5.90;74.71;93996.97;5065550;28;20025;-75
2023/03/24 02:45:42;;;;;;;20.40;11.23;;;;;;;5.89;74.42;93975.03;5065667;28;20040;-75
2023/03/24 02:48:43;;;;;;;25.42;11.35;;;;;;;5.85;74.38;93987.25;5065326;28;20400;-75
2023/03/24 02:51:25;;;;;;;20.90;11.18;;;;;;;5.83;74.57;93970.88;5057326;28;20037;-75
2023/03/24 02:54:10;;;;;;;25.60;11.55;;;;;;;5.89;74.32;93963.66;5065513;28;20084;-75
2023/03/24 02:56:59;;;;;;;17.70;11.18;;;;;;;5.90;73.99;93954.66;5065359;28;20267;-74
2023/03/24 02:59:40;;;;;;;22.27;11.48;;;;;;;5.88;74.15;93964.72;5065483;28;20262;-75
2023/03/24 03:02:18;;;;;;;17.58;10.00;;;;;;;5.88;74.59;93965.50;5065096;28;20089;-75
2023/03/24 03:04:55;;;;;;;16.60;9.23;;;;;;;5.93;73.86;93959.41;5065449;28;20032;-75
2023/03/24 03:07:25;;;;;;;16.55;8.48;;;;;;;5.90;73.68;93967.88;5065199;28;20065;-74
2023/03/24 03:10:01;;;;;;;16.58;7.50;;;;;;;5.90;73.14;93968.66;5065228;28;20024;-74
2023/03/24 03:12:32;;;;;;;12.93;7.20;;;;;;;5.86;73.01;93958.94;5065047;28;20048;-75
2023/03/24 03:15:05;;;;;;;20.33;10.27;;;;;;;5.86;72.82;93954.41;5065137;28;20032;-76
2023/03/24 03:17:37;;;;;;;20.83;11.25;;;;;;;5.85;73.26;93954.72;5063402;28;20028;-75
2023/03/24 03:20:11;;;;;;;20.77;11.50;;;;;;;5.87;73.54;93950.72;5065073;28;20091;-74
2023/03/24 03:22:57;;;;;;;23.80;11.25;;;;;;;5.88;73.61;93960.22;5064874;28;20025;-75
2023/03/24 03:25:28;;;;;;;19.77;10.10;;;;;;;5.91;73.85;93954.38;5064869;28;20066;-75
2023/03/24 03:27:58;;;;;;;18.23;10.35;;;;;;;5.91;73.76;93961.53;5064580;28;20021;-75
2023/03/24 03:30:30;;;;;;;22.45;11.13;;;;;;;5.94;73.74;93969.69;5064862;28;20080;-75
2023/03/24 03:33:02;;;;;;;21.40;10.93;;;;;;;5.94;73.64;93963.59;5064847;28;20033;-75
2023/03/24 03:36:01;;;;;;;21.65;11.05;;;;;;;5.95;73.96;93957.28;5064523;28;20219;-74
2023/03/24 03:38:46;;;;;;;21.40;10.75;;;;;;;5.92;73.92;93948.03;5055629;28;20037;-74
2023/03/24 03:41:15;;;;;;;23.13;11.20;;;;;;;5.90;74.08;93946.72;5064696;28;20049;-75
2023/03/24 03:43:41;;;;;;;21.55;10.60;;;;;;;5.87;74.33;93944.66;5064583;28;20033;-74
2023/03/24 03:46:07;;;;;;;18.67;10.52;;;;;;;5.90;74.43;93944.06;5063408;28;20029;-75
2023/03/24 03:48:33;;;;;;;19.20;11.75;;;;;;;5.89;74.32;93945.16;5064210;28;20049;-75
2023/03/24 03:50:59;;;;;;;19.77;10.40;;;;;;;5.91;74.39;93950.94;5064302;28;20047;-75
2023/03/24 03:53:49;;;;;;;18.40;10.30;;;;;;;5.87;74.31;93956.00;5064308;28;20268;-75
2023/03/24 03:56:18;;;;;;;19.15;10.43;;;;;;;5.88;74.23;93968.16;5064267;28;20017;-75
2023/03/24 03:58:46;;;;;;;23.00;11.70;;;;;;;5.86;74.16;93972.16;5064457;28;20096;-75
2023/03/24 04:01:14;;;;;;;16.38;8.70;;;;;;;5.79;74.37;93967.97;5064149;28;20333;-75
2023/03/24 04:03:59;;;;;;;19.35;10.02;;;;;;;5.72;74.51;93969.38;5064292;28;20024;-75
2023/03/24 04:06:41;;;;;;;23.83;11.75;;;;;;;5.71;74.88;93978.38;5064107;28;20108;-75
2023/03/24 04:09:13;;;;;;;22.92;12.00;;;;;;;5.66;75.62;93979.22;5064033;28;20055;-75
2023/03/24 04:11:53;;;;;;;24.58;13.20;;;;;;;5.57;75.99;93973.75;5064035;28;20096;-75
2023/03/24 04:14:24;;;;;;;21.33;11.75;;;;;;;5.57;75.88;93980.88;5063724;28;20040;-74
2023/03/24 04:16:58;;;;;;;29.80;12.77;;;;;;;5.58;75.94;93971.91;5063756;28;20020;-75
2023/03/24 04:19:43;;;;;;;25.90;11.75;;;;;;;5.57;75.96;93975.59;5063836;28;20041;-74
2023/03/24 04:22:37;;;;;;;26.17;14.02;;;;;;;5.54;75.91;93976.16;5063414;28;20033;-75
2023/03/24 04:25:10;;;;;;;25.20;12.70;;;;;;;5.53;75.88;93964.78;5063617;28;20055;-75
2023/03/24 04:27:45;;;;;;;26.40;12.43;;;;;;;5.52;75.82;93960.59;5063644;28;20320;-75
2023/03/24 04:30:42;;;;;;;20.27;11.45;;;;;;;5.52;75.66;93973.03;5063181;28;20028;-74
2023/03/24 04:33:21;;;;;;;29.67;12.90;;;;;;;5.50;75.25;93968.00;5063127;28;20032;-75
2023/03/24 04:36:05;;;;;;;25.30;13.90;;;;;;;5.41;75.50;93970.47;5063693;28;20028;-74
2023/03/24 04:38:34;;;;;;;29.33;13.63;;;;;;;5.35;75.78;93966.28;5063459;28;20024;-74
2023/03/24 04:41:01;;;;;;;28.27;14.80;;;;;;;5.38;75.93;93972.88;5063168;28;20047;-74
2023/03/24 04:43:34;;;;;;;28.38;13.45;;;;;;;5.36;76.22;93977.63;5063508;28;20063;-74
2023/03/24 04:46:02;;;;;;;31.77;16.05;;;;;;;5.40;76.51;93984.72;5063265;28;20092;-74
2023/03/24 04:48:28;;;;;;;30.60;14.90;;;;;;;5.43;76.24;93986.84;5063218;28;20063;-74
2023/03/24 04:50:59;;;;;;;31.25;15.63;;;;;;;5.43;76.32;94000.06;5063252;28;20032;-74
2023/03/24 04:53:25;;;;;;;32.92;16.13;;;;;;;5.49;76.44;94000.78;5063180;28;20052;-74
2023/03/24 04:56:28;;;;;;;36.00;16.40;;;;;;;5.52;76.36;94004.75;5062869;28;20020;-74
2023/03/24 04:58:55;;;;;;;30.52;14.93;;;;;;;5.50;76.58;94004.22;5041374;28;20025;-74
2023/03/24 05:01:21;;;;;;;30.10;15.77;;;;;;;5.54;76.51;94008.69;5059037;28;20041;-74
2023/03/24 05:03:47;;;;;;;30.35;16.00;;;;;;;5.59;76.53;94005.97;5062970;28;20029;-74
2023/03/24 05:06:13;;;;;;;36.17;17.67;;;;;;;5.65;77.45;94001.44;5063074;28;20024;-74
2023/03/24 05:08:40;;;;;;;37.45;18.63;;;;;;;5.71;78.02;93996.91;5063124;28;20040;-74
2023/03/24 05:11:06;;;;;;;38.35;18.73;;;;;;;5.69;78.35;94002.47;5062951;28;20021;-74
2023/03/24 05:13:31;;;;;;;44.60;18.05;;;;;;;5.76;78.70;94004.78;5062920;28;20020;-74
2023/03/24 05:15:57;;;;;;;34.15;16.60;;;;;;;5.79;78.56;94012.16;5062793;28;20024;-74
2023/03/24 05:18:22;;;;;;;37.50;19.25;;;;;;;5.87;78.55;94010.78;5062698;28;20021;-75
2023/03/24 05:20:48;;;;;;;36.95;18.13;;;;;;;5.90;78.42;94013.63;5062858;28;20023;-75
2023/03/24 05:23:13;;;;;;;28.48;16.27;;;;;;;5.92;78.19;94008.06;5062712;28;20021;-74
2023/03/24 05:25:39;;;;;;;41.88;18.05;;;;;;;5.97;78.02;94016.00;5062972;28;20020;-75
2023/03/24 05:28:04;;;;;;;48.63;16.92;;;;;;;6.03;77.97;94023.59;5062779;28;20020;-74
2023/03/24 05:30:30;;;;;;;45.85;16.55;;;;;;;6.11;77.95;94018.78;5062825;28;20029;-74
2023/03/24 05:32:56;;;;;;;42.45;18.30;;;;;;;6.19;77.80;94024.25;5062799;28;20074;-74
2023/03/24 05:35:23;;;;;;;37.38;17.23;;;;;;;6.23;77.55;94022.59;5062700;28;20315;-74
2023/03/24 05:37:49;;;;;;;40.10;18.02;;;;;;;6.22;77.96;94023.66;5061335;28;20075;-74
2023/03/24 05:40:14;;;;;;;50.97;20.40;;;;;;;6.24;78.17;94023.38;5062400;28;20021;-74
2023/03/24 05:42:40;;;;;;;36.75;18.30;;;;;;;6.26;77.94;94026.53;5066650;28;20337;-74
2023/03/24 05:45:06;;;;;;;38.63;19.42;;;;;;;6.29;78.00;94015.41;5066624;28;20024;-74
2023/03/24 05:47:32;;;;;;;47.03;19.70;;;;;;;6.37;78.04;94011.31;5066473;28;20020;-74
2023/03/24 05:49:57;;;;;;;44.22;19.45;;;;;;;6.46;77.81;94014.94;5066565;28;20131;-74
2023/03/24 05:52:23;;;;;;;55.45;20.05;;;;;;;6.54;77.78;94016.97;5066425;28;20299;-75
2023/03/24 05:54:50;;;;;;;45.10;18.80;;;;;;;6.62;77.54;94023.50;5065329;28;20082;-74
2023/03/24 05:57:17;;;;;;;47.00;20.52;;;;;;;6.73;77.02;94016.97;5066541;28;20025;-75
2023/03/24 05:59:42;;;;;;;56.92;21.70;;;;;;;6.82;77.02;94017.94;5066599;28;20052;-75
2023/03/24 06:02:08;;;;;;;45.03;19.90;;;;;;;6.85;76.81;94011.28;5066364;28;20082;-75
2023/03/24 06:04:33;;;;;;;59.58;20.45;;;;;;;6.93;76.85;94026.53;5066203;28;20029;-75
2023/03/24 06:06:59;;;;;;;40.00;20.15;;;;;;;7.01;76.92;94031.19;5066106;28;20029;-74
2023/03/24 06:09:28;;;;;;;43.90;21.10;;;;;;;7.07;76.79;94033.78;5066085;28;20096;-75
2023/03/24 06:11:54;;;;;;;42.17;21.30;;;;;;;7.07;76.87;94033.78;5065993;28;20013;-75
2023/03/24 06:14:20;;;;;;;47.25;20.73;;;;;;;7.05;76.85;94030.63;5065929;28;20062;-76
2023/03/24 06:16:48;;;;;;;48.08;19.48;;;;;;;7.14;76.29;94039.50;5065928;28;20296;-75
2023/03/24 06:19:15;;;;;;;47.08;19.70;;;;;;;7.21;76.03;94035.44;5065915;28;20016;-75
2023/03/24 06:21:40;;;;;;;44.25;19.98;;;;;;;7.28;75.78;94032.41;5066247;28;20033;-75
2023/03/24 06:24:06;;;;;;;44.58;21.25;;;;;;;7.34;75.30;94028.59;5066088;28;20032;-75
2023/03/24 06:26:31;;;;;;;42.55;20.38;;;;;;;7.36;75.24;94036.28;5066175;28;20021;-75
2023/03/24 06:28:57;;;;;;;38.17;20.52;;;;;;;7.42;75.14;94040.44;5065965;28;20021;-75
2023/03/24 06:31:24;;;;;;;43.50;20.42;;;;;;;7.50;75.21;94036.34;5065716;28;20062;-74
2023/03/24 06:33:50;;;;;;;40.50;20.48;;;;;;;7.57;74.78;94031.44;5065764;28;20028;-75
2023/03/24 06:36:17;;;;;;;39.33;19.98;;;;;;;7.62;74.65;94039.34;5065697;28;20032;-75
2023/03/24 06:38:43;;;;;;;36.83;21.02;;;;;;;7.63;74.86;94033.75;5065641;28;20033;-75
2023/03/24 06:41:09;;;;;;;41.97;20.92;;;;;;;7.67;74.75;94041.88;5065606;28;20020;-74
2023/03/24 06:43:34;;;;;;;43.50;20.67;;;;;;;7.72;74.79;94041.81;5065383;28;20053;-74
2023/03/24 06:46:00;;;;;;;39.63;20.42;;;;;;;7.80;74.26;94037.72;5065474;28;20024;-74
2023/03/24 06:48:26;;;;;;;38.20;20.42;;;;;;;7.83;74.36;94040.56;5065303;28;20037;-74
2023/03/24 06:50:52;;;;;;;38.05;18.40;;;;;;;7.89;73.70;94043.94;5065313;28;20029;-75
2023/03/24 06:53:20;;;;;;;39.38;19.20;;;;;;;7.89;73.66;94037.84;5065046;28;20048;-74
2023/03/24 06:55:49;;;;;;;38.00;19.42;;;;;;;7.87;73.69;94046.09;5065355;28;20088;-74
2023/03/24 06:58:16;;;;;;;43.00;19.90;;;;;;;7.96;73.45;94041.69;5064261;28;20029;-74
2023/03/24 07:00:43;;;;;;;38.58;19.15;;;;;;;8.09;73.11;94042.03;5065307;28;20028;-75
2023/03/24 07:03:09;;;;;;;35.47;20.05;;;;;;;8.10;72.40;94049.69;5065407;28;20255;-75
2023/03/24 07:05:38;;;;;;;36.10;20.33;;;;;;;8.16;72.18;94037.91;5065111;28;20025;-75
2023/03/24 07:08:04;;;;;;;38.67;19.50;;;;;;;8.17;71.90;94050.09;5064984;28;20037;-75
2023/03/24 07:10:30;;;;;;;43.50;19.45;;;;;;;8.26;71.83;94052.84;5064974;28;20028;-75
2023/03/24 07:12:56;;;;;;;39.05;18.45;;;;;;;8.34;71.27;94049.50;5065082;28;20021;-75
2023/03/24 07:15:22;;;;;;;35.53;19.33;;;;;;;8.37;71.22;94056.13;5065146;28;20023;-75
2023/03/24 07:17:48;;;;;;;42.83;20.08;;;;;;;8.41;70.74;94057.13;5064943;28;20350;-78
2023/03/24 07:20:14;;;;;;;33.75;18.70;;;;;;;8.50;70.49;94052.69;5064927;28;20028;-74
2023/03/24 07:22:40;;;;;;;37.10;18.88;;;;;;;8.51;71.36;94064.09;5064915;28;20021;-74
2023/03/24 07:25:06;;;;;;;42.97;19.98;;;;;;;8.68;71.23;94061.66;5064700;28;20211;-74
2023/03/24 07:27:32;;;;;;;35.92;18.55;;;;;;;8.85;70.70;94063.72;5064619;28;20098;-74
2023/03/24 07:29:58;;;;;;;36.47;19.20;;;;;;;9.00;70.03;94060.75;5064946;28;20052;-72
2023/03/24 07:32:24;;;;;;;39.65;18.65;;;;;;;9.13;69.59;94055.72;5064771;28;20021;-73
2023/03/24 07:34:50;;;;;;;38.22;18.02;;;;;;;9.29;68.81;94046.31;5064899;28;20032;-73
2023/03/24 07:37:15;;;;;;;38.30;16.83;;;;;;;9.48;68.02;94059.47;5064659;28;20307;-73
2023/03/24 07:39:41;;;;;;;29.58;16.23;;;;;;;9.61;65.54;94058.63;5064613;28;20028;-72
2023/03/24 07:42:06;;;;;;;23.23;14.07;;;;;;;9.68;65.04;94055.53;5064265;28;20063;-74
2023/03/24 07:44:32;;;;;;;30.90;14.65;;;;;;;9.76;64.73;94054.03;5064606;28;20036;-74
2023/03/24 07:46:57;;;;;;;33.38;15.77;;;;;;;9.79;64.60;94043.59;5064496;28;20028;-73
2023/03/24 07:49:23;;;;;;;35.50;18.50;;;;;;;9.93;64.61;94048.03;5064110;28;20067;-73
2023/03/24 07:51:48;;;;;;;38.50;16.60;;;;;;;10.07;64.64;94040.75;5063105;28;20070;-73
2023/03/24 07:54:14;;;;;;;33.78;15.25;;;;;;;10.17;62.99;94048.50;5064454;28;20223;-73
2023/03/24 07:56:40;;;;;;;29.50;16.05;;;;;;;10.20;62.93;94047.13;5064157;28;20021;-73
2023/03/24 07:59:08;;;;;;;28.10;15.13;;;;;;;10.16;62.63;94041.59;5064131;28;20330;-73
2023/03/24 08:01:35;;;;;;;26.25;14.15;;;;;;;10.29;62.11;94044.50;5064159;28;20208;-76
2023/03/24 08:04:01;;;;;;;29.67;15.38;;;;;;;10.40;62.80;94041.28;5063626;28;20250;-73
2023/03/24 08:06:28;;;;;;;36.92;16.67;;;;;;;10.42;62.58;94031.13;5063900;28;20315;-73
2023/03/24 08:08:54;;;;;;;39.10;16.88;;;;;;;10.50;62.42;94029.59;5064016;28;20096;-73
2023/03/24 08:11:20;;;;;;;36.42;17.63;;;;;;;10.66;61.57;94026.47;5063991;28;20048;-73
2023/03/24 08:13:45;;;;;;;43.03;16.90;;;;;;;10.77;61.70;94023.22;5064247;28;20012;-78
2023/03/24 08:16:11;;;;;;;33.70;16.05;;;;;;;10.92;61.16;94027.34;5063940;28;20247;-79
2023/03/24 08:18:37;;;;;;;34.50;16.60;;;;;;;11.06;60.75;94021.09;5063841;28;20029;-78
2023/03/24 08:21:03;;;;;;;38.42;17.85;;;;;;;11.20;59.99;94029.75;5062397;28;20021;-77
2023/03/24 08:23:28;;;;;;;32.92;14.73;;;;;;;11.29;58.68;94022.53;5063714;28;20031;-77
2023/03/24 08:25:54;;;;;;;31.02;16.10;;;;;;;11.32;58.35;94024.59;5063305;28;20028;-76
2023/03/24 08:28:19;;;;;;;29.60;16.08;;;;;;;11.36;58.25;94027.41;5063583;28;20058;-76
2023/03/24 08:30:44;;;;;;;35.33;15.85;;;;;;;11.44;58.29;94030.06;5063601;28;20024;-76
2023/03/24 08:33:12;;;;;;;33.75;16.38;;;;;;;11.55;58.05;94014.53;5063666;28;20319;-75
2023/03/24 08:35:38;;;;;;;36.35;13.35;;;;;;;11.68;57.55;94015.44;5063380;28;20021;-75
2023/03/24 08:38:04;;;;;;;30.58;13.85;;;;;;;11.70;57.22;94015.91;5063215;28;20028;-75
2023/03/24 08:40:30;;;;;;;32.67;15.27;;;;;;;11.79;56.36;94014.03;5063310;28;20270;-77
2023/03/24 08:42:59;;;;;;;38.08;14.10;;;;;;;11.87;56.49;94007.13;5063568;28;20365;-76
2023/03/24 08:45:29;;;;;;;36.55;14.43;;;;;;;11.99;56.64;94006.50;5062378;28;20373;-75
2023/03/24 08:47:57;;;;;;;30.58;12.77;;;;;;;12.13;56.01;94001.75;5063124;28;20036;-80
2023/03/24 08:50:24;;;;;;;32.63;12.98;;;;;;;12.28;55.81;93997.00;5063236;28;20025;-79
2023/03/24 08:52:50;;;;;;;30.02;14.68;;;;;;;12.40;55.51;93999.78;5062722;28;20088;-71
2023/03/24 08:55:17;;;;;;;33.15;13.20;;;;;;;12.53;54.89;93992.63;5061784;28;20029;-72
2023/03/24 08:57:44;;;;;;;27.13;13.68;;;;;;;12.67;54.84;93987.06;5061120;28;20023;-71
2023/03/24 09:00:17;;;;;;;28.60;14.45;;;;;;;12.77;54.42;93979.47;5062860;28;20273;-71
2023/03/24 09:02:46;;;;;;;31.05;14.63;;;;;;;12.91;53.96;93981.91;5062860;28;20033;-72
2023/03/24 09:05:14;;;;;;;39.15;15.32;;;;;;;12.94;53.17;93980.47;5061756;28;20047;-71
2023/03/24 09:07:39;;;;;;;38.10;14.82;;;;;;;13.05;53.02;93977.09;5063165;28;20040;-71
2023/03/24 09:10:06;;;;;;;29.70;13.55;;;;;;;13.19;53.06;93966.13;5062881;28;20024;-72
2023/03/24 09:12:32;;;;;;;33.75;14.77;;;;;;;13.30;52.05;93974.56;5062651;28;20032;-71
2023/03/24 09:14:58;;;;;;;28.70;13.73;;;;;;;13.35;51.71;93965.56;5062852;28;20028;-72
2023/03/24 09:17:23;;;;;;;25.55;13.40;;;;;;;13.41;51.76;93962.38;5062683;28;20234;-72
2023/03/24 09:19:49;;;;;;;31.30;13.45;;;;;;;13.50;51.00;93959.63;5062017;28;20327;-71
2023/03/24 09:22:14;;;;;;;33.92;12.50;;;;;;;13.56;50.58;93960.19;5062545;28;20045;-71
2023/03/24 09:24:40;;;;;;;33.83;14.13;;;;;;;13.59;50.28;93962.97;5062970;28;20036;-72
2023/03/24 09:27:05;;;;;;;24.50;13.10;;;;;;;13.61;50.38;93950.03;5062933;28;20056;-73
2023/03/24 09:29:31;;;;;;;26.13;13.13;;;;;;;13.74;49.23;93948.22;5062605;28;20064;-71
2023/03/24 09:31:56;;;;;;;31.73;12.95;;;;;;;13.79;49.17;93961.38;5062595;28;20031;-70
2023/03/24 09:34:23;;;;;;;31.55;12.00;;;;;;;13.89;48.61;93954.06;5062542;28;20028;-72
2023/03/24 09:36:48;;;;;;;24.90;11.85;;;;;;;13.87;47.98;93953.59;5062394;28;20311;-71
2023/03/24 09:39:14;;;;;;;21.17;12.45;;;;;;;13.93;48.10;93949.59;5062561;28;20036;-71
2023/03/24 09:41:43;;;;;;;25.58;10.90;;;;;;;13.98;47.59;93952.06;5062670;28;20025;-71
2023/03/24 09:44:22;;;;;;;24.08;11.77;;;;;;;14.10;47.51;93938.66;5062520;28;20035;-71
2023/03/24 09:46:53;;;;;;;25.00;12.38;;;;;;;14.21;47.08;93944.41;5062557;28;20021;-71
2023/03/24 09:49:27;;;;;;;28.03;12.77;;;;;;;14.33;46.56;93940.94;5062481;28;20119;-71
2023/03/24 09:51:59;;;;;;;41.20;12.63;;;;;;;14.36;45.86;93930.31;5062414;28;20166;-72
2023/03/24 09:54:24;;;;;;;;;;;;;;;14.40;44.72;93930.44;5062990;28;20021;-72
2023/03/24 09:56:50;;;;;;;21.05;10.02;;;;;;;14.49;45.11;93928.44;5062452;28;19951;-72
2023/03/24 09:59:25;;;;;;;25.90;10.02;;;;;;;14.58;45.69;93921.09;5062169;28;20087;-72
2023/03/24 10:01:51;;;;;;;32.22;11.13;;;;;;;14.68;45.05;93924.44;5062042;28;20100;-72
2023/03/24 10:04:23;;;;;;;29.38;11.73;;;;;;;14.74;45.37;93915.81;5062546;28;20028;-72
2023/03/24 10:06:54;;;;;;;23.67;12.05;;;;;;;14.98;45.42;93915.00;5062411;28;20016;-72
2023/03/24 10:09:27;;;;;;;24.35;12.40;;;;;;;15.15;44.47;93907.81;5062300;28;20021;-67
2023/03/24 10:12:01;;;;;;;30.67;11.57;;;;;;;15.25;43.55;93915.38;5062296;28;20091;-67
2023/03/24 10:14:57;;;;;;;19.73;11.20;;;;;;;15.36;42.92;93913.75;5062350;28;20029;-67
2023/03/24 10:17:41;;;;;;;22.23;9.77;;;;;;;15.51;42.70;93909.56;5062080;28;20021;-67
2023/03/24 10:20:16;;;;;;;21.92;11.82;;;;;;;15.69;43.25;93901.19;5062150;28;20028;-67
2023/03/24 10:22:45;;;;;;;24.60;10.20;;;;;;;15.75;42.51;93905.22;5062228;28;20232;-67
2023/03/24 10:25:17;;;;;;;17.42;10.20;;;;;;;15.84;40.77;93898.56;5061109;28;20070;-68
2023/03/24 10:27:47;;;;;;;22.70;9.95;;;;;;;15.87;41.81;93905.16;5064555;28;20025;-69
2023/03/24 10:30:18;;;;;;;23.52;11.73;;;;;;;15.83;41.47;93904.28;5066112;28;20039;-68
2023/03/24 10:32:45;;;;;;;16.58;9.95;;;;;;;15.82;40.56;93903.50;5065819;28;20017;-67
2023/03/24 10:35:57;;;;;;;22.35;10.18;;;;;;;15.96;39.89;93891.56;5065900;28;20067;-67
2023/03/24 10:38:23;;;;;;;19.38;9.38;;;;;;;16.11;40.63;93900.75;5049144;28;20044;-68
2023/03/24 10:40:49;;;;;;;23.98;10.30;;;;;;;16.17;39.88;93897.47;5065738;28;20239;-68
2023/03/24 10:43:17;;;;;;;16.15;8.18;;;;;;;16.28;38.60;93888.88;5065451;28;20025;-68
2023/03/24 10:45:47;;;;;;;13.57;7.85;;;;;;;16.39;38.34;93889.91;5065816;28;20109;-68
2023/03/24 10:48:13;;;;;;;17.08;8.35;;;;;;;16.48;38.42;93885.13;5065493;28;20397;-68
2023/03/24 10:50:44;;;;;;;15.93;8.50;;;;;;;16.59;37.73;93883.47;5065770;28;20017;-69
2023/03/24 10:53:19;;;;;;;20.50;9.95;;;;;;;16.74;37.72;93889.16;5065597;28;20017;-68
2023/03/24 10:55:46;;;;;;;29.05;9.02;;;;;;;16.83;36.81;93882.50;5065167;28;20025;-67
2023/03/24 10:58:23;;;;;;;18.10;8.30;;;;;;;16.96;35.15;93882.38;5065263;28;20028;-67
2023/03/24 11:00:49;;;;;;;23.02;8.45;;;;;;;16.98;35.88;93880.88;5065313;28;20021;-67
2023/03/24 11:03:27;;;;;;;14.00;8.40;;;;;;;17.10;33.78;93876.50;5065201;28;20031;-67
2023/03/24 11:06:03;;;;;;;17.42;8.07;;;;;;;17.08;34.32;93866.06;5065231;28;20028;-68
2023/03/24 11:08:35;;;;;;;12.02;6.70;;;;;;;17.21;35.23;93874.78;5065043;28;20028;-68
2023/03/24 11:11:13;;;;;;;14.57;7.50;;;;;;;17.33;34.14;93861.19;5065164;28;20095;-68
2023/03/24 11:13:38;;;;;;;19.05;7.82;;;;;;;17.37;34.47;93872.03;5063965;28;20311;-68
2023/03/24 11:16:15;;;;;;;16.25;8.80;;;;;;;17.35;34.53;93866.22;5065051;28;20063;-68
2023/03/24 11:19:05;;;;;;;12.63;7.18;;;;;;;17.31;32.75;93866.13;5065051;28;20029;-67
2023/03/24 11:21:35;;;;;;;19.55;7.90;;;;;;;17.29;33.54;93860.31;5061499;28;20096;-67
2023/03/24 11:24:03;;;;;;;20.27;7.72;;;;;;;17.41;34.47;93857.47;5064780;28;20021;-68
2023/03/24 11:26:32;;;;;;;15.45;6.55;;;;;;;17.64;33.80;93848.66;5064928;28;20143;-68
2023/03/24 11:29:20;;;;;;;16.05;7.47;;;;;;;17.80;33.57;93843.16;5064778;28;20039;-68
2023/03/24 11:32:01;;;;;;;12.57;6.80;;;;;;;18.02;32.41;93834.31;5064296;28;20041;-68
2023/03/24 11:34:40;;;;;;;18.23;7.20;;;;;;;18.08;31.25;93826.72;5064449;28;20027;-68
2023/03/24 11:37:21;;;;;;;13.95;6.70;;;;;;;18.15;32.73;93840.31;5064693;28;20020;-68
2023/03/24 11:40:11;;;;;;;17.25;7.22;;;;;;;18.16;31.44;93825.69;5063521;28;20044;-68